Time;durP1;ratioP1;P1;durP2;ratioP2;P2;SDS_P1;SDS_P2;PMS_P1;PMS_P2;Temp;Humidity;BMP_temperature;BMP_pressure;BME280_temperature;BME280_humidity;BME280_pressure;Samples;Min_cycle;Max_cycle;Signal;HPM_P1;HPM_P2
2022/03/08 00:02:24;;;;;;;;;;;1.60;99.90;;;;;;4983812;28;19928;-76
2022/03/08 00:04:49;;;;;;;;;;;1.60;99.90;;;;;;4960543;28;20834;-76
2022/03/08 00:07:15;;;;;;;;;;;1.50;99.90;;;;;;4978628;28;20011;-76
2022/03/08 00:09:41;;;;;;;;;;;1.50;99.90;;;;;;4966264;28;19951;-76
2022/03/08 00:12:07;;;;;;;;;;;1.40;99.90;;;;;;4964227;28;19928;-76
2022/03/08 00:14:34;;;;;;;;;;;1.40;99.90;;;;;;4969173;28;19952;-77
2022/03/08 00:17:00;;;;;;;;;;;1.40;99.90;;;;;;4983004;28;20122;-76
2022/03/08 00:19:26;;;;;;;;;;;1.60;99.90;;;;;;4963028;28;20679;-76
2022/03/08 00:21:52;;;;;;;;;;;1.50;99.90;;;;;;4962717;28;19928;-77
2022/03/08 00:24:18;;;;;;;;;;;1.50;99.90;;;;;;4955023;28;19928;-77
2022/03/08 00:26:44;;;;;;;;;;;1.40;99.90;;;;;;4978174;28;20096;-77
2022/03/08 00:29:10;;;;;;;;;;;1.40;99.90;;;;;;4981861;28;19928;-76
2022/03/08 00:31:36;;;;;;;;;;;1.30;99.90;;;;;;4965016;28;19935;-77
2022/03/08 00:34:03;;;;;;;;;;;1.30;99.90;;;;;;4979525;28;19928;-77
2022/03/08 00:36:30;;;;;;;;;;;1.20;99.90;;;;;;4982747;28;21128;-77
2022/03/08 00:38:55;;;;;;;;;;;1.10;99.90;;;;;;4979870;28;20356;-77
2022/03/08 00:41:21;;;;;;;;;;;1.20;99.90;;;;;;4961711;28;19928;-76
2022/03/08 00:43:46;;;;;;;;;;;1.10;99.90;;;;;;4960801;28;20133;-76
2022/03/08 00:46:12;;;;;;;;;;;1.00;99.90;;;;;;4966960;28;19929;-77
2022/03/08 00:48:38;;;;;;;;;;;1.10;99.90;;;;;;4962001;28;19936;-77
2022/03/08 00:51:03;;;;;;;;;;;1.10;99.90;;;;;;4977605;28;19935;-77
2022/03/08 00:53:29;;;;;;;;;;;1.00;99.90;;;;;;4965603;28;20304;-77
2022/03/08 00:55:55;;;;;;;;;;;1.10;99.90;;;;;;4976940;28;20389;-76
2022/03/08 00:58:21;;;;;;;;;;;1.20;99.90;;;;;;4979088;28;20333;-77
2022/03/08 01:00:46;;;;;;;;;;;1.20;99.90;;;;;;4984455;28;19928;-77
2022/03/08 01:03:12;;;;;;;;;;;1.20;99.90;;;;;;4962547;28;19986;-77
2022/03/08 01:05:38;;;;;;;;;;;1.20;99.90;;;;;;4942217;28;20451;-78
2022/03/08 01:08:04;;;;;;;;;;;1.30;99.90;;;;;;4965395;28;19928;-77
2022/03/08 01:10:30;;;;;;;;;;;1.20;99.90;;;;;;4959380;28;19994;-77
2022/03/08 01:12:56;;;;;;;;;;;1.10;99.90;;;;;;4965455;28;20864;-77
2022/03/08 01:15:23;;;;;;;;;;;1.20;99.90;;;;;;4955907;28;19990;-77
2022/03/08 01:17:49;;;;;;;;;;;1.10;99.90;;;;;;4964259;28;19932;-77
2022/03/08 01:20:15;;;;;;;;;;;1.20;99.90;;;;;;4987087;28;19935;-77
2022/03/08 01:22:40;;;;;;;;;;;1.30;99.90;;;;;;4982679;28;20051;-77
2022/03/08 01:25:07;;;;;;;;;;;1.20;99.90;;;;;;4960622;28;19928;-77
2022/03/08 01:27:33;;;;;;;;;;;1.40;99.90;;;;;;4959435;28;20696;-77
2022/03/08 01:29:59;;;;;;;;;;;1.40;99.90;;;;;;4964224;28;19928;-77
2022/03/08 01:32:24;;;;;;;;;;;1.30;99.90;;;;;;4981101;28;19928;-77
2022/03/08 01:34:50;;;;;;;;;;;1.30;99.90;;;;;;4964649;28;20422;-77
2022/03/08 01:37:16;;;;;;;;;;;1.20;99.90;;;;;;4944748;28;19989;-78
2022/03/08 01:39:42;;;;;;;;;;;1.30;99.90;;;;;;4962562;28;20026;-77
2022/03/08 01:42:08;;;;;;;;;;;1.30;99.90;;;;;;4960801;28;20009;-77
2022/03/08 01:44:34;;;;;;;;;;;1.40;99.90;;;;;;4962398;28;19928;-77
2022/03/08 01:46:59;;;;;;;;;;;1.50;99.90;;;;;;4964055;28;19943;-77
2022/03/08 01:49:26;;;;;;;;;;;1.40;99.90;;;;;;4963458;28;20791;-77
2022/03/08 01:51:52;;;;;;;;;;;1.30;99.90;;;;;;4962859;28;20069;-77
2022/03/08 01:54:17;;;;;;;;;;;1.40;99.90;;;;;;4986933;28;20512;-77
2022/03/08 01:56:43;;;;;;;;;;;1.30;99.90;;;;;;4962545;28;20287;-77
2022/03/08 01:59:09;;;;;;;;;;;1.20;99.90;;;;;;4965738;28;19929;-76
2022/03/08 02:01:35;;;;;;;;;;;1.20;99.90;;;;;;4975373;28;19928;-77
2022/03/08 02:04:00;;;;;;;;;;;1.10;99.90;;;;;;4963807;28;20043;-77
2022/03/08 02:06:27;;;;;;;;;;;1.10;99.90;;;;;;4960687;28;20031;-77
2022/03/08 02:08:52;;;;;;;;;;;1.00;99.90;;;;;;4955626;28;19951;-77
2022/03/08 02:11:19;;;;;;;;;;;1.10;99.90;;;;;;4961506;28;20516;-77
2022/03/08 02:13:44;;;;;;;;;;;1.10;99.90;;;;;;4958925;28;20323;-77
2022/03/08 02:16:10;;;;;;;;;;;1.00;99.90;;;;;;4957914;28;20958;-77
2022/03/08 02:18:35;;;;;;;;;;;1.00;99.90;;;;;;4959894;28;20476;-77
2022/03/08 02:21:05;;;;;;;;;;;1.10;99.90;;;;;;4976789;28;20543;-77
2022/03/08 02:23:31;;;;;;;;;;;0.90;99.90;;;;;;4949915;28;19932;-77
2022/03/08 02:25:57;;;;;;;;;;;0.80;99.90;;;;;;4960315;28;20972;-77
2022/03/08 02:28:22;;;;;;;;;;;0.90;99.90;;;;;;4977120;28;20425;-77
2022/03/08 02:30:48;;;;;;;;;;;1.00;99.90;;;;;;4962574;28;19986;-77
2022/03/08 02:33:14;;;;;;;;;;;0.90;99.90;;;;;;4944144;28;20993;-77
2022/03/08 02:35:39;;;;;;;;;;;1.00;99.90;;;;;;4959740;28;20313;-77
2022/03/08 02:38:06;;;;;;;;;;;0.90;99.90;;;;;;4962603;28;19935;-77
2022/03/08 02:40:36;;;;;;;;;;;0.90;99.90;;;;;;4942101;28;20446;-77
2022/03/08 02:43:02;;;;;;;;;;;0.90;99.90;;;;;;4944900;28;20015;-77
2022/03/08 02:45:28;;;;;;;;;;;1.00;99.90;;;;;;4967368;28;19939;-77
2022/03/08 02:47:54;;;;;;;;;;;0.90;99.90;;;;;;4985529;28;20399;-77
2022/03/08 02:50:20;;;;;;;;;;;1.00;99.90;;;;;;4957646;28;19935;-77
2022/03/08 02:52:48;;;;;;;;;;;1.10;99.90;;;;;;4964561;28;20284;-77
2022/03/08 02:55:13;;;;;;;;;;;1.10;99.90;;;;;;4961028;28;19928;-77
2022/03/08 02:57:40;;;;;;;;;;;1.20;99.90;;;;;;4948674;28;20895;-77
2022/03/08 03:00:07;;;;;;;;;;;1.20;99.90;;;;;;4981726;28;20214;-77
2022/03/08 03:02:33;;;;;;;;;;;1.20;99.90;;;;;;4962468;28;19928;-77
2022/03/08 03:04:58;;;;;;;;;;;1.10;99.90;;;;;;4943640;28;19932;-77
2022/03/08 03:07:24;;;;;;;;;;;1.00;99.90;;;;;;4944621;28;19956;-77
2022/03/08 03:09:50;;;;;;;;;;;0.90;99.90;;;;;;4956831;28;19932;-77
2022/03/08 03:12:16;;;;;;;;;;;0.70;99.90;;;;;;4956246;28;19951;-77
2022/03/08 03:14:42;;;;;;;;;;;0.50;99.90;;;;;;4965077;28;20543;-77
2022/03/08 03:17:07;;;;;;;;;;;0.30;99.90;;;;;;4948524;28;19932;-77
2022/03/08 03:19:33;;;;;;;;;;;0.20;99.90;;;;;;4953915;28;19963;-77
2022/03/08 03:21:58;;;;;;;;;;;0.10;99.90;;;;;;4976334;28;20607;-77
2022/03/08 03:24:24;;;;;;;;;;;0.00;99.90;;;;;;4984141;28;20397;-77
2022/03/08 03:26:50;;;;;;;;;;;-0.10;99.90;;;;;;4957797;28;20709;-77
2022/03/08 03:29:15;;;;;;;;;;;-0.30;99.90;;;;;;4941876;28;20584;-77
2022/03/08 03:31:41;;;;;;;;;;;-0.20;99.90;;;;;;4964579;28;19982;-77
2022/03/08 03:34:06;;;;;;;;;;;-0.20;99.90;;;;;;4968047;28;20459;-77
2022/03/08 03:36:32;;;;;;;;;;;0.00;99.90;;;;;;4964394;28;19975;-77
2022/03/08 03:38:58;;;;;;;;;;;0.40;99.90;;;;;;4951283;28;20736;-77
2022/03/08 03:41:24;;;;;;;;;;;0.20;99.90;;;;;;4981767;28;19971;-77
2022/03/08 03:43:49;;;;;;;;;;;0.30;99.90;;;;;;4978183;28;19952;-77
2022/03/08 03:46:16;;;;;;;;;;;0.50;99.90;;;;;;4945009;28;20002;-77
2022/03/08 03:48:42;;;;;;;;;;;0.40;99.90;;;;;;4961096;28;20017;-77
2022/03/08 03:51:08;;;;;;;;;;;0.40;99.90;;;;;;4959911;28;20740;-77
2022/03/08 03:53:33;;;;;;;;;;;0.40;99.90;;;;;;4963894;28;19928;-77
2022/03/08 03:55:59;;;;;;;;;;;0.40;99.90;;;;;;4964113;28;19932;-77
2022/03/08 03:58:25;;;;;;;;;;;0.60;99.90;;;;;;4964548;28;19929;-77
2022/03/08 04:00:50;;;;;;;;;;;0.50;99.90;;;;;;4965158;28;20542;-77
2022/03/08 04:03:18;;;;;;;;;;;0.60;99.90;;;;;;4963984;28;19925;-77
2022/03/08 04:05:45;;;;;;;;;;;0.50;99.90;;;;;;4963138;28;19932;-77
2022/03/08 04:08:10;;;;;;;;;;;0.70;99.90;;;;;;4961818;28;20430;-77
2022/03/08 04:10:37;;;;;;;;;;;0.50;99.90;;;;;;4960531;28;19932;-77
2022/03/08 04:13:03;;;;;;;;;;;0.40;99.90;;;;;;4984142;28;19928;-77
2022/03/08 04:15:29;;;;;;;;;;;0.30;99.90;;;;;;4978008;28;20057;-77
2022/03/08 04:17:54;;;;;;;;;;;0.30;99.90;;;;;;4981866;28;20799;-77
2022/03/08 04:20:20;;;;;;;;;;;0.60;99.90;;;;;;4962313;28;19932;-77
2022/03/08 04:22:46;;;;;;;;;;;0.50;99.90;;;;;;4941318;28;20950;-78
2022/03/08 04:25:12;;;;;;;;;;;0.50;99.90;;;;;;4985249;28;20405;-77
2022/03/08 04:27:38;;;;;;;;;;;0.40;99.90;;;;;;4962734;28;19971;-78
2022/03/08 04:30:07;;;;;;;;;;;0.30;99.90;;;;;;4968192;28;20760;-78
2022/03/08 04:32:33;;;;;;;;;;;0.40;99.90;;;;;;4963968;28;19928;-77
2022/03/08 04:34:59;;;;;;;;;;;0.30;99.90;;;;;;4982321;28;19928;-77
2022/03/08 04:37:24;;;;;;;;;;;0.20;99.90;;;;;;4966660;28;20533;-77
2022/03/08 04:39:50;;;;;;;;;;;-0.20;99.90;;;;;;4959303;28;20150;-77
2022/03/08 04:42:16;;;;;;;;;;;-0.30;99.90;;;;;;4961819;28;20663;-77
2022/03/08 04:44:41;;;;;;;;;;;0.00;99.90;;;;;;4950719;28;19924;-77
2022/03/08 04:47:07;;;;;;;;;;;0.20;99.90;;;;;;4964933;28;19928;-77
2022/03/08 04:49:33;;;;;;;;;;;0.20;99.90;;;;;;4969469;28;21113;-77
2022/03/08 04:51:58;;;;;;;;;;;0.20;99.90;;;;;;4981559;28;19924;-77
2022/03/08 04:54:24;;;;;;;;;;;0.20;99.90;;;;;;4962646;28;20998;-77
2022/03/08 04:56:50;;;;;;;;;;;0.20;99.90;;;;;;4982413;28;19929;-77
2022/03/08 04:59:15;;;;;;;;;;;0.20;99.90;;;;;;4981218;28;20265;-77
2022/03/08 05:01:41;;;;;;;;;;;0.10;99.90;;;;;;4978234;28;19985;-77
2022/03/08 05:04:07;;;;;;;;;;;0.20;99.90;;;;;;4977681;28;19928;-77
2022/03/08 05:06:32;;;;;;;;;;;0.30;99.90;;;;;;4960749;28;20047;-77
2022/03/08 05:08:58;;;;;;;;;;;0.20;99.90;;;;;;4960906;28;20294;-77
2022/03/08 05:11:24;;;;;;;;;;;0.10;99.90;;;;;;4966740;28;19928;-77
2022/03/08 05:13:50;;;;;;;;;;;0.10;99.90;;;;;;4978219;28;19932;-77
2022/03/08 05:16:15;;;;;;;;;;;0.10;99.90;;;;;;4954783;28;19935;-77
2022/03/08 05:18:41;;;;;;;;;;;0.00;99.90;;;;;;4963826;28;19928;-77
2022/03/08 05:21:07;;;;;;;;;;;0.00;99.90;;;;;;4976998;28;20508;-77
2022/03/08 05:23:33;;;;;;;;;;;0.00;99.90;;;;;;4980867;28;20403;-77
2022/03/08 05:25:58;;;;;;;;;;;0.10;99.90;;;;;;4957922;28;19928;-77
2022/03/08 05:28:24;;;;;;;;;;;0.10;99.90;;;;;;4973574;28;19928;-77
2022/03/08 05:30:51;;;;;;;;;;;0.10;99.90;;;;;;4960484;28;20039;-77
2022/03/08 05:33:16;;;;;;;;;;;0.00;99.90;;;;;;4980675;28;19929;-77
2022/03/08 05:35:42;;;;;;;;;;;0.20;99.90;;;;;;4958193;28;20440;-77
2022/03/08 05:38:08;;;;;;;;;;;0.20;99.90;;;;;;4978579;28;20154;-77
2022/03/08 05:40:33;;;;;;;;;;;0.20;99.90;;;;;;4962213;28;19929;-77
2022/03/08 05:43:01;;;;;;;;;;;0.20;99.90;;;;;;4978140;28;19928;-77
2022/03/08 05:45:27;;;;;;;;;;;0.30;99.90;;;;;;4957238;28;20280;-77
2022/03/08 05:47:53;;;;;;;;;;;0.30;99.90;;;;;;4976759;28;20332;-77
2022/03/08 05:50:20;;;;;;;;;;;0.10;99.90;;;;;;4940050;28;20644;-77
2022/03/08 05:52:46;;;;;;;;;;;0.30;99.90;;;;;;4955955;28;20423;-77
2022/03/08 05:55:12;;;;;;;;;;;0.30;99.90;;;;;;4958182;28;20359;-77
2022/03/08 05:57:37;;;;;;;;;;;0.20;99.90;;;;;;4958580;28;20082;-77
2022/03/08 06:00:05;;;;;;;;;;;0.20;99.90;;;;;;4955752;28;20372;-77
2022/03/08 06:02:31;;;;;;;;;;;0.10;99.90;;;;;;4954539;28;20859;-77
2022/03/08 06:04:56;;;;;;;;;;;0.10;99.90;;;;;;4972828;28;19929;-77
2022/03/08 06:07:22;;;;;;;;;;;0.20;99.90;;;;;;4972785;28;21176;-77
2022/03/08 06:09:48;;;;;;;;;;;0.20;99.90;;;;;;4973177;28;20029;-77
2022/03/08 06:12:14;;;;;;;;;;;0.10;99.90;;;;;;4975098;28;20734;-77
2022/03/08 06:14:40;;;;;;;;;;;0.30;99.90;;;;;;4976180;28;19928;-77
2022/03/08 06:17:06;;;;;;;;;;;0.30;99.90;;;;;;4951474;28;20332;-77
2022/03/08 06:19:33;;;;;;;;;;;0.20;99.90;;;;;;4955228;28;19928;-77
2022/03/08 06:21:59;;;;;;;;;;;0.20;99.90;;;;;;4974782;28;19928;-77
2022/03/08 06:25:01;;;;;;;;;;;0.30;99.90;;;;;;4974190;28;19929;-77
2022/03/08 06:27:27;;;;;;;;;;;0.30;99.90;;;;;;4961240;28;19967;-78
2022/03/08 06:29:52;;;;;;;;;;;0.30;99.90;;;;;;4954843;28;20162;-77
2022/03/08 06:32:19;;;;;;;;;;;0.50;99.90;;;;;;4956280;28;20686;-78
2022/03/08 06:34:45;;;;;;;;;;;0.60;99.90;;;;;;4954679;28;19929;-77
2022/03/08 06:37:12;;;;;;;;;;;0.70;99.90;;;;;;4953635;28;20631;-77
2022/03/08 06:39:37;;;;;;;;;;;0.70;99.90;;;;;;4972098;28;19939;-77
2022/03/08 06:42:04;;;;;;;;;;;0.90;99.90;;;;;;4954322;28;20135;-77
2022/03/08 06:44:31;;;;;;;;;;;0.90;99.90;;;;;;4976555;28;19997;-78
2022/03/08 06:46:58;;;;;;;;;;;1.00;99.90;;;;;;4952464;28;19982;-77
2022/03/08 06:49:23;;;;;;;;;;;1.00;99.90;;;;;;4975132;28;19929;-77
2022/03/08 06:51:49;;;;;;;;;;;1.10;99.90;;;;;;4933882;28;19939;-77
2022/03/08 06:54:18;;;;;;;;;;;1.20;99.90;;;;;;4959370;28;20349;-77
2022/03/08 06:56:43;;;;;;;;;;;1.20;99.90;;;;;;4973732;28;20800;-77
2022/03/08 06:59:09;;;;;;;;;;;1.30;99.90;;;;;;4940200;28;20403;-77
2022/03/08 07:01:35;;;;;;;;;;;1.40;99.90;;;;;;4962326;28;20247;-78
2022/03/08 07:04:01;;;;;;;;;;;1.40;99.90;;;;;;4978880;28;20132;-77
2022/03/08 07:06:26;;;;;;;;;;;1.50;99.90;;;;;;4959804;28;20868;-77
2022/03/08 07:08:53;;;;;;;;;;;1.60;99.90;;;;;;4949624;28;19982;-77
2022/03/08 07:11:19;;;;;;;;;;;1.70;99.90;;;;;;4977220;28;20096;-77
2022/03/08 07:13:45;;;;;;;;;;;1.80;99.90;;;;;;4956937;28;19983;-78
2022/03/08 07:16:11;;;;;;;;;;;1.90;99.90;;;;;;4978186;28;20943;-78
2022/03/08 07:18:36;;;;;;;;;;;2.00;99.90;;;;;;4958636;28;20330;-77
2022/03/08 07:21:03;;;;;;;;;;;2.20;99.90;;;;;;4956479;28;19986;-78
2022/03/08 07:23:29;;;;;;;;;;;2.20;99.90;;;;;;4956413;28;19924;-78
2022/03/08 07:25:55;;;;;;;;;;;2.30;99.90;;;;;;4950265;28;19928;-78
2022/03/08 07:28:20;;;;;;;;;;;2.50;99.90;;;;;;4957739;28;19968;-77
2022/03/08 07:30:46;;;;;;;;;;;2.60;99.90;;;;;;4943407;28;19964;-78
2022/03/08 07:33:11;;;;;;;;;;;2.80;99.90;;;;;;4979488;28;20406;-78
2022/03/08 07:35:37;;;;;;;;;;;2.90;99.90;;;;;;4974126;28;20282;-78
2022/03/08 07:38:03;;;;;;;;;;;3.30;99.90;;;;;;4957381;28;19928;-79
2022/03/08 07:40:29;;;;;;;;;;;3.30;99.90;;;;;;4956851;28;20311;-78
2022/03/08 07:42:54;;;;;;;;;;;3.50;99.90;;;;;;4960786;28;19928;-78
2022/03/08 07:45:20;;;;;;;;;;;3.70;99.90;;;;;;4976249;28;19933;-78
2022/03/08 07:47:46;;;;;;;;;;;3.90;99.90;;;;;;4961331;28;19928;-78
2022/03/08 07:50:11;;;;;;;;;;;3.70;99.90;;;;;;4978707;28;20299;-78
2022/03/08 07:52:38;;;;;;;;;;;4.00;99.90;;;;;;4977540;28;19932;-78
2022/03/08 07:55:04;;;;;;;;;;;4.10;99.90;;;;;;4960386;28;20400;-77
2022/03/08 07:57:30;;;;;;;;;;;4.40;99.90;;;;;;4959912;28;19929;-78
2022/03/08 07:59:56;;;;;;;;;;;4.40;99.90;;;;;;4975045;28;20462;-78
2022/03/08 08:02:21;;;;;;;;;;;4.10;99.90;;;;;;4959011;28;19932;-79
2022/03/08 08:04:47;;;;;;;;;;;4.30;99.90;;;;;;4977542;28;20062;-78
2022/03/08 08:07:13;;;;;;;;;;;4.40;99.90;;;;;;4959158;28;19924;-78
2022/03/08 08:09:39;;;;;;;;;;;4.50;99.90;;;;;;4961663;28;19929;-77
2022/03/08 08:12:06;;;;;;;;;;;4.50;99.90;;;;;;4964169;28;20511;-78
2022/03/08 08:14:32;;;;;;;;;;;4.80;99.90;;;;;;4964294;28;19935;-78
2022/03/08 08:16:58;;;;;;;;;;;5.10;99.90;;;;;;4983946;28;20345;-79
2022/03/08 08:19:23;;;;;;;;;;;5.30;99.90;;;;;;4981754;28;20298;-79
2022/03/08 08:21:49;;;;;;;;;;;5.50;99.90;;;;;;4965742;28;20322;-78
2022/03/08 08:24:15;;;;;;;;;;;5.50;99.90;;;;;;4967891;28;19936;-78
2022/03/08 08:26:40;;;;;;;;;;;5.50;99.90;;;;;;4962083;28;21067;-78
2022/03/08 08:29:06;;;;;;;;;;;5.20;99.90;;;;;;4961880;28;20028;-78
2022/03/08 08:31:32;;;;;;;;;;;5.90;99.90;;;;;;4963139;28;19970;-78
2022/03/08 08:33:58;;;;;;;;;;;6.10;99.90;;;;;;4962358;28;19954;-79
2022/03/08 08:36:24;;;;;;;;;;;6.10;99.90;;;;;;4980810;28;19935;-79
2022/03/08 08:38:49;;;;;;;;;;;5.90;99.90;;;;;;4965401;28;20312;-78
2022/03/08 08:41:15;;;;;;;;;;;6.30;99.90;;;;;;4961320;28;19936;-77
2022/03/08 08:43:41;;;;;;;;;;;6.60;99.90;;;;;;4964288;28;19933;-78
2022/03/08 08:46:07;;;;;;;;;;;6.90;99.90;;;;;;4963648;28;19974;-78
2022/03/08 08:48:32;;;;;;;;;;;7.00;99.90;;;;;;4979514;28;19928;-78
2022/03/08 08:50:58;;;;;;;;;;;6.80;99.90;;;;;;4963289;28;20062;-78
2022/03/08 08:53:24;;;;;;;;;;;6.50;99.90;;;;;;4982449;28;19940;-78
2022/03/08 08:55:49;;;;;;;;;;;6.40;99.90;;;;;;4963857;28;20402;-77
2022/03/08 08:58:15;;;;;;;;;;;6.60;99.90;;;;;;4980588;28;20005;-79
2022/03/08 09:00:41;;;;;;;;;;;6.30;99.90;;;;;;4978531;28;19933;-79
2022/03/08 09:03:14;;;;;;;;;;;7.10;99.90;;;;;;4961437;28;19925;-77
2022/03/08 09:05:44;;;;;;;;;;;6.70;99.90;;;;;;4958586;28;19967;-78
2022/03/08 09:08:10;;;;;;;;;;;7.50;99.90;;;;;;4976913;28;19928;-80
2022/03/08 09:10:35;;;;;;;;;;;7.60;99.90;;;;;;4955701;28;20096;-80
2022/03/08 09:13:01;;;;;;;;;;;7.50;99.90;;;;;;4980169;28;19990;-77
2022/03/08 09:15:27;;;;;;;;;;;7.80;99.90;;;;;;4961192;28;20014;-78
2022/03/08 09:17:53;;;;;;;;;;;7.20;99.90;;;;;;4928229;28;19936;-79
2022/03/08 09:20:19;;;;;;;;;;;7.70;99.90;;;;;;4959390;28;20551;-79
2022/03/08 09:22:44;;;;;;;;;;;7.80;99.90;;;;;;4961470;28;19932;-78
2022/03/08 09:25:10;;;;;;;;;;;7.80;99.90;;;;;;4958104;28;19935;-79
2022/03/08 09:27:36;;;;;;;;;;;8.30;99.90;;;;;;4957993;28;19932;-78
2022/03/08 09:30:03;;;;;;;;;;;8.30;99.90;;;;;;4978303;28;19936;-79
2022/03/08 09:32:29;;;;;;;;;;;8.20;97.60;;;;;;4974109;28;20321;-78
2022/03/08 09:34:55;;;;;;;;;;;8.70;99.90;;;;;;4962899;28;20367;-79
2022/03/08 09:37:20;;;;;;;;;;;8.70;99.90;;;;;;4958984;28;20158;-79
2022/03/08 09:39:46;;;;;;;;;;;8.50;92.70;;;;;;4960023;28;19986;-78
2022/03/08 09:42:12;;;;;;;;;;;8.90;97.20;;;;;;4975667;28;19928;-78
2022/03/08 09:44:37;;;;;;;;;;;9.00;90.20;;;;;;4959351;28;19948;-80
2022/03/08 09:47:03;;;;;;;;;;;8.60;90.20;;;;;;4980276;28;20718;-78
2022/03/08 09:49:29;;;;;;;;;;;9.00;84.30;;;;;;4965784;28;20394;-78
2022/03/08 09:51:55;;;;;;;;;;;9.10;89.70;;;;;;4960193;28;20223;-80
2022/03/08 09:54:20;;;;;;;;;;;9.00;85.40;;;;;;4964617;28;20297;-80
2022/03/08 09:56:46;;;;;;;;;;;9.00;82.20;;;;;;4946922;28;19973;-78
2022/03/08 09:59:16;;;;;;;;;;;9.30;80.30;;;;;;4959147;28;20012;-79
2022/03/08 10:01:42;;;;;;;;;;;9.50;79.10;;;;;;4957321;28;20554;-79
2022/03/08 10:04:08;;;;;;;;;;;9.50;77.40;;;;;;4944415;28;20444;-78
2022/03/08 10:06:40;;;;;;;;;;;9.30;79.40;;;;;;4979859;28;19958;-77
2022/03/08 10:09:13;;;;;;;;;;;9.40;78.00;;;;;;4977761;28;19939;-78
2022/03/08 10:11:39;;;;;;;;;;;9.70;77.40;;;;;;4979390;28;19951;-77
2022/03/08 10:14:05;;;;;;;;;;;9.80;74.10;;;;;;4978914;28;19928;-78
2022/03/08 10:16:41;;;;;;;;;;;9.60;72.80;;;;;;4976923;28;20386;-78
2022/03/08 10:19:09;;;;;;;;;;;9.30;71.80;;;;;;4977870;28;19924;-77
2022/03/08 10:21:36;;;;;;;;;;;9.20;71.50;;;;;;4976771;28;19928;-78
2022/03/08 10:24:03;;;;;;;;;;;9.40;69.40;;;;;;4976425;28;20148;-78
2022/03/08 10:26:29;;;;;;;;;;;9.70;72.20;;;;;;4955829;28;19928;-79
2022/03/08 10:28:56;;;;;;;;;;;9.80;72.10;;;;;;4964262;28;19928;-78
2022/03/08 10:31:22;;;;;;;;;;;9.90;69.70;;;;;;4974780;28;20256;-77
2022/03/08 10:33:48;;;;;;;;;;;10.00;72.00;;;;;;4959925;28;19979;-79
2022/03/08 10:36:16;;;;;;;;;;;10.20;69.50;;;;;;4977876;28;20102;-78
2022/03/08 10:39:02;;;;;;;;;;;9.90;66.90;;;;;;4955695;28;20038;-80
2022/03/08 10:41:27;;;;;;;;;;;10.00;69.20;;;;;;4926286;28;19924;-79
2022/03/08 10:43:55;;;;;;;;;;;9.90;67.00;;;;;;4953692;28;20374;-78
2022/03/08 10:46:21;;;;;;;;;;;9.40;67.30;;;;;;4959939;28;19928;-78
2022/03/08 10:48:47;;;;;;;;;;;9.40;64.80;;;;;;4978019;28;19925;-78
2022/03/08 10:51:14;;;;;;;;;;;9.60;66.60;;;;;;4944314;28;19986;-77
2022/03/08 10:53:41;;;;;;;;;;;9.80;68.40;;;;;;4944420;28;20065;-77
2022/03/08 10:56:08;;;;;;;;;;;9.70;64.70;;;;;;4956140;28;19963;-77
2022/03/08 10:58:33;;;;;;;;;;;9.80;65.80;;;;;;4975318;28;20408;-77
2022/03/08 11:01:00;;;;;;;;;;;10.20;65.20;;;;;;4954599;28;19928;-77
2022/03/08 11:03:25;;;;;;;;;;;10.00;64.30;;;;;;4944840;28;20298;-79
2022/03/08 11:05:53;;;;;;;;;;;10.00;62.10;;;;;;4961195;28;19939;-77
2022/03/08 11:08:19;;;;;;;;;;;10.20;63.90;;;;;;4960967;28;20385;-77
2022/03/08 11:10:45;;;;;;;;;;;10.40;65.20;;;;;;4980907;28;19935;-78
2022/03/08 11:13:12;;;;;;;;;;;10.30;63.50;;;;;;4980850;28;20060;-77
2022/03/08 11:15:39;;;;;;;;;;;10.50;62.70;;;;;;4944263;28;20137;-77
2022/03/08 11:18:06;;;;;;;;;;;10.50;63.20;;;;;;4959816;28;19935;-78
2022/03/08 11:20:32;;;;;;;;;;;10.70;61.60;;;;;;4956311;28;20376;-78
2022/03/08 11:22:58;;;;;;;;;;;10.90;63.20;;;;;;4979753;28;19932;-78
2022/03/08 11:25:25;;;;;;;;;;;10.90;62.90;;;;;;4959686;28;19932;-77
2022/03/08 11:27:51;;;;;;;;;;;11.20;63.30;;;;;;4958840;28;19924;-77
2022/03/08 11:30:19;;;;;;;;;;;11.30;62.50;;;;;;4957103;28;19936;-78
2022/03/08 11:32:53;;;;;;;;;;;11.10;61.20;;;;;;4975198;28;19928;-77
2022/03/08 11:35:40;;;;;;;;;;;11.20;61.30;;;;;;4958611;28;20385;-77
2022/03/08 11:38:05;;;;;;;;;;;11.30;62.00;;;;;;4958216;28;20036;-77
2022/03/08 11:40:32;;;;;;;;;;;11.10;61.50;;;;;;4975540;28;19933;-77
2022/03/08 11:43:01;;;;;;;;;;;11.10;60.00;;;;;;4982011;28;20618;-77
2022/03/08 11:45:27;;;;;;;;;;;11.20;62.90;;;;;;4964177;28;20027;-77
2022/03/08 11:47:55;;;;;;;;;;;11.50;63.00;;;;;;4963353;28;20015;-77
2022/03/08 11:50:22;;;;;;;;;;;11.30;62.10;;;;;;4962619;28;19928;-77
2022/03/08 11:52:52;;;;;;;;;;;11.30;61.00;;;;;;4967175;28;19929;-77
2022/03/08 11:55:24;;;;;;;;;;;11.50;62.80;;;;;;4962544;28;20401;-78
2022/03/08 11:57:50;;;;;;;;;;;11.00;60.80;;;;;;4961153;28;20409;-79
2022/03/08 12:00:18;;;;;;;;;;;11.10;61.00;;;;;;4965413;28;20291;-78
2022/03/08 12:02:45;;;;;;;;;;;11.30;60.90;;;;;;4964967;28;20380;-77
2022/03/08 12:05:29;;;;;;;;;;;11.20;61.50;;;;;;4963536;28;20047;-77
2022/03/08 12:07:55;;;;;;;;;;;11.30;61.60;;;;;;4961506;28;20402;-77
2022/03/08 12:10:25;;;;;;;;;;;11.40;63.00;;;;;;4963133;28;19958;-78
2022/03/08 12:12:55;;;;;;;;;;;11.50;60.90;;;;;;4963230;28;20321;-79
2022/03/08 12:15:21;;;;;;;;;;;11.70;60.60;;;;;;4982817;28;19932;-78
2022/03/08 12:18:07;;;;;;;;;;;11.10;60.00;;;;;;4963549;28;20322;-79
2022/03/08 12:20:32;;;;;;;;;;;11.50;62.30;;;;;;4935554;28;20733;-79
2022/03/08 12:23:09;;;;;;;;;;;11.30;61.30;;;;;;4979698;28;19972;-78
2022/03/08 12:25:34;;;;;;;;;;;11.70;59.30;;;;;;4962403;28;19935;-79
2022/03/08 12:28:00;;;;;;;;;;;11.40;58.90;;;;;;4963971;28;19932;-75
2022/03/08 12:30:39;;;;;;;;;;;11.10;58.30;;;;;;4962794;28;20600;-77
2022/03/08 12:33:05;;;;;;;;;;;11.10;56.90;;;;;;4960925;28;20433;-78
2022/03/08 12:35:31;;;;;;;;;;;10.90;57.10;;;;;;4981634;28;19978;-77
2022/03/08 12:37:58;;;;;;;;;;;11.10;59.10;;;;;;4966588;28;19990;-77
2022/03/08 12:40:32;;;;;;;;;;;11.30;58.80;;;;;;4966520;28;19951;-77
2022/03/08 12:42:59;;;;;;;;;;;11.60;58.50;;;;;;4959833;28;20450;-77
2022/03/08 12:45:29;;;;;;;;;;;11.40;56.40;;;;;;4962598;28;20266;-77
2022/03/08 12:47:57;;;;;;;;;;;11.60;56.80;;;;;;4981822;28;19932;-78
2022/03/08 12:50:29;;;;;;;;;;;11.20;57.60;;;;;;4961735;28;19981;-77
2022/03/08 12:52:59;;;;;;;;;;;11.80;59.30;;;;;;4944264;28;20789;-77
2022/03/08 12:55:26;;;;;;;;;;;11.80;56.70;;;;;;4960361;28;20468;-78
2022/03/08 12:57:56;;;;;;;;;;;11.90;55.80;;;;;;4959213;28;19971;-77
2022/03/08 13:00:27;;;;;;;;;;;12.00;58.80;;;;;;4962252;28;19940;-78
2022/03/08 13:02:54;;;;;;;;;;;11.30;56.70;;;;;;4977482;28;20749;-77
2022/03/08 13:05:26;;;;;;;;;;;11.20;56.70;;;;;;4963727;28;20004;-75
2022/03/08 13:07:53;;;;;;;;;;;11.60;60.30;;;;;;4984656;28;20011;-75
2022/03/08 13:10:20;;;;;;;;;;;11.90;59.80;;;;;;4965584;28;20039;-76
2022/03/08 13:12:51;;;;;;;;;;;11.60;56.50;;;;;;4961899;28;20053;-75
2022/03/08 13:15:17;;;;;;;;;;;11.50;57.60;;;;;;4963039;28;20826;-77
2022/03/08 13:17:45;;;;;;;;;;;11.80;58.40;;;;;;4982869;28;19936;-78
2022/03/08 13:20:23;;;;;;;;;;;12.00;57.80;;;;;;4959240;28;19932;-77
2022/03/08 13:22:49;;;;;;;;;;;12.10;57.90;;;;;;4962662;28;20652;-78
2022/03/08 13:25:15;;;;;;;;;;;11.60;55.70;;;;;;4943913;28;20427;-77
2022/03/08 13:27:49;;;;;;;;;;;11.60;55.10;;;;;;4978954;28;19928;-77
2022/03/08 13:30:16;;;;;;;;;;;11.80;57.20;;;;;;4980727;28;20337;-78
2022/03/08 13:32:42;;;;;;;;;;;12.10;56.30;;;;;;4979232;28;20337;-77
2022/03/08 13:35:09;;;;;;;;;;;11.60;54.90;;;;;;4963312;28;20755;-77
2022/03/08 13:37:46;;;;;;;;;;;11.70;56.00;;;;;;4969420;28;20269;-77
2022/03/08 13:40:26;;;;;;;;;;;11.60;55.80;;;;;;4963795;28;20425;-77
2022/03/08 13:42:51;;;;;;;;;;;11.60;55.40;;;;;;4977532;28;19994;-76
2022/03/08 13:45:17;;;;;;;;;;;11.70;56.00;;;;;;4954893;28;19932;-76
2022/03/08 13:47:44;;;;;;;;;;;11.90;56.50;;;;;;4963264;28;20010;-78
2022/03/08 13:50:10;;;;;;;;;;;12.10;55.60;;;;;;4983228;28;19928;-77
2022/03/08 13:52:35;;;;;;;;;;;12.10;55.30;;;;;;4978031;28;20432;-77
2022/03/08 13:55:01;;;;;;;;;;;12.00;56.40;;;;;;4980343;28;19983;-77
2022/03/08 13:57:27;;;;;;;;;;;12.10;54.10;;;;;;4945069;28;20627;-77
2022/03/08 13:59:53;;;;;;;;;;;12.00;55.40;;;;;;4947552;28;19936;-77
2022/03/08 14:02:20;;;;;;;;;;;12.30;55.80;;;;;;4958014;28;20904;-77
2022/03/08 14:04:46;;;;;;;;;;;12.50;56.00;;;;;;4977205;28;20003;-77
2022/03/08 14:07:12;;;;;;;;;;;12.50;57.30;;;;;;4981263;28;19939;-78
2022/03/08 14:09:39;;;;;;;;;;;12.60;54.50;;;;;;4962049;28;19935;-77
2022/03/08 14:12:05;;;;;;;;;;;12.50;55.60;;;;;;4963016;28;19964;-76
2022/03/08 14:14:31;;;;;;;;;;;12.70;55.60;;;;;;4963125;28;19968;-78
2022/03/08 14:16:57;;;;;;;;;;;12.40;55.00;;;;;;4963858;28;20326;-77
2022/03/08 14:19:40;;;;;;;;;;;12.20;53.90;;;;;;4959977;28;19928;-78
2022/03/08 14:22:06;;;;;;;;;;;11.80;51.40;;;;;;4961424;28;20942;-79
2022/03/08 14:24:31;;;;;;;;;;;11.90;53.10;;;;;;4962341;28;19932;-78